createdAt,value
2023-04-29T00:00:37.057Z,74.70
2023-04-29T00:03:29.505Z,74.78
2023-04-29T00:06:21.881Z,74.63
2023-04-29T00:09:11.499Z,74.75
2023-04-29T00:12:01.206Z,74.39
2023-04-29T00:14:54.320Z,74.66
2023-04-29T00:17:43.571Z,74.43
2023-04-29T00:20:33.022Z,74.51
2023-04-29T00:23:23.760Z,74.38
2023-04-29T00:26:13.186Z,74.32
2023-04-29T00:29:07.030Z,74.65
2023-04-29T00:31:56.487Z,74.34
2023-04-29T00:34:46.274Z,74.63
2023-04-29T00:37:36.370Z,74.35
2023-04-29T00:40:28.729Z,74.74
2023-04-29T00:43:18.023Z,74.95
2023-04-29T00:46:07.485Z,75.04
2023-04-29T00:48:57.032Z,74.92
2023-04-29T00:51:46.388Z,74.93
2023-04-29T00:54:36.422Z,75.14
2023-04-29T00:57:29.224Z,75.34
2023-04-29T01:00:19.514Z,75.34
2023-04-29T01:03:10.273Z,74.98
2023-04-29T01:06:10.485Z,75.29
2023-04-29T01:09:28.295Z,75.34
2023-04-29T01:12:27.660Z,75.54
2023-04-29T01:15:25.447Z,75.81
2023-04-29T01:18:25.809Z,76.19
2023-04-29T01:21:15.725Z,76.20
2023-04-29T01:24:06.516Z,76.14
2023-04-29T01:27:03.311Z,75.56
2023-04-29T01:30:12.631Z,75.60
2023-04-29T01:33:12.765Z,76.28
2023-04-29T01:36:17.933Z,76.67
2023-04-29T01:39:18.003Z,76.15
2023-04-29T01:42:24.008Z,76.14
2023-04-29T01:45:18.579Z,75.98
2023-04-29T01:48:08.814Z,75.64
2023-04-29T01:50:58.186Z,75.76
2023-04-29T01:53:47.506Z,75.82
2023-04-29T01:56:38.384Z,75.52
2023-04-29T01:59:39.160Z,75.82
2023-04-29T02:02:38.900Z,76.24
2023-04-29T02:05:38.385Z,75.85
2023-04-29T02:08:28.509Z,76.11
2023-04-29T02:11:19.189Z,76.13
2023-04-29T02:14:10.254Z,76.01
2023-04-29T02:16:59.644Z,76.08
2023-04-29T02:19:49.014Z,75.70
2023-04-29T02:22:38.401Z,75.84
2023-04-29T02:25:27.722Z,76.16
2023-04-29T02:28:18.016Z,75.99
2023-04-29T02:31:08.716Z,76.05
2023-04-29T02:33:58.846Z,76.43
2023-04-29T02:36:48.045Z,76.15
2023-04-29T02:39:37.297Z,76.31
2023-04-29T02:42:26.682Z,76.42
2023-04-29T02:45:16.201Z,76.10
2023-04-29T02:48:07.998Z,76.41
2023-04-29T02:50:57.315Z,76.36
2023-04-29T02:53:46.600Z,76.05
2023-04-29T02:56:35.876Z,76.13
2023-04-29T02:59:26.628Z,76.56
2023-04-29T03:02:16.412Z,76.37
2023-04-29T03:05:11.132Z,76.47
2023-04-29T03:08:00.537Z,76.86
2023-04-29T03:10:51.388Z,76.72
2023-04-29T03:13:41.576Z,76.57
2023-04-29T03:16:31.616Z,76.94
2023-04-29T03:19:20.890Z,76.98
2023-04-29T03:22:13.748Z,76.87
2023-04-29T03:25:05.999Z,77.09
2023-04-29T03:27:57.472Z,77.54
2023-04-29T03:30:47.305Z,77.87
2023-04-29T03:33:36.583Z,77.62
2023-04-29T03:36:26.239Z,77.78
2023-04-29T03:39:32.819Z,77.70
2023-04-29T03:42:22.306Z,77.66
2023-04-29T03:45:14.558Z,77.65
2023-04-29T03:48:03.894Z,77.42
2023-04-29T03:50:54.400Z,77.85
2023-04-29T03:53:47.299Z,77.97
2023-04-29T03:56:39.682Z,77.97
2023-04-29T03:59:29.201Z,77.90
2023-04-29T04:02:21.762Z,77.84
2023-04-29T04:05:12.311Z,77.85
2023-04-29T04:08:10.714Z,78.29
2023-04-29T04:11:15.365Z,78.18
2023-04-29T04:14:10.076Z,78.02
2023-04-29T04:16:59.437Z,77.61
2023-04-29T04:19:48.853Z,77.71
2023-04-29T04:22:39.394Z,77.87
2023-04-29T04:25:39.955Z,78.41
2023-04-29T04:29:01.553Z,78.34
2023-04-29T04:32:12.492Z,78.27
2023-04-29T04:35:02.378Z,78.79
2023-04-29T04:37:52.359Z,78.80
2023-04-29T04:40:43.493Z,79.08
2023-04-29T04:43:45.322Z,79.27
2023-04-29T04:46:44.664Z,78.85
2023-04-29T04:49:41.577Z,79.35
2023-04-29T04:52:31.111Z,79.05
2023-04-29T04:55:39.182Z,78.48
2023-04-29T04:58:28.505Z,79.06
2023-04-29T05:01:17.985Z,79.15
2023-04-29T05:04:07.818Z,79.22
2023-04-29T05:06:58.622Z,79.82
2023-04-29T05:09:53.073Z,79.85
2023-04-29T05:12:43.771Z,80.25
2023-04-29T05:15:33.114Z,80.14
2023-04-29T05:18:23.592Z,79.70
2023-04-29T05:21:16.522Z,80.03
2023-04-29T05:24:09.064Z,80.32
2023-04-29T05:26:58.553Z,80.25
2023-04-29T05:29:47.929Z,80.29
2023-04-29T05:32:37.361Z,80.87
2023-04-29T05:35:28.872Z,81.51
2023-04-29T05:38:18.380Z,81.71
2023-04-29T05:41:18.976Z,82.17
2023-04-29T05:44:29.212Z,82.38
2023-04-29T05:47:18.548Z,82.52
2023-04-29T05:50:13.866Z,82.66
2023-04-29T05:53:03.216Z,82.86
2023-04-29T05:55:52.784Z,82.94
2023-04-29T05:58:45.329Z,83.04
2023-04-29T06:01:34.877Z,83.17
2023-04-29T06:04:26.577Z,82.99
2023-04-29T06:07:37.014Z,82.97
2023-04-29T06:10:34.506Z,83.18
2023-04-29T06:13:23.790Z,83.00
2023-04-29T06:16:15.338Z,82.83
2023-04-29T06:19:05.090Z,83.00
2023-04-29T06:21:54.751Z,83.25
2023-04-29T06:24:44.158Z,82.88
2023-04-29T06:27:36.710Z,82.69
2023-04-29T06:30:26.011Z,82.67
2023-04-29T06:33:16.774Z,82.55
2023-04-29T06:36:07.444Z,82.63
2023-04-29T06:39:15.832Z,83.10
2023-04-29T06:42:18.617Z,83.14
2023-04-29T06:45:28.356Z,82.96
2023-04-29T06:48:24.403Z,83.13
2023-04-29T06:51:13.936Z,83.34
2023-04-29T06:54:03.351Z,83.42
2023-04-29T06:56:52.817Z,83.36
2023-04-29T06:59:42.430Z,83.50
2023-04-29T07:02:32.333Z,83.38
2023-04-29T07:05:23.510Z,83.42
2023-04-29T07:08:14.247Z,83.18
2023-04-29T07:11:04.405Z,82.98
2023-04-29T07:13:54.986Z,82.61
2023-04-29T07:16:44.436Z,82.60
2023-04-29T07:19:34.246Z,82.76
2023-04-29T07:22:27.725Z,82.81
2023-04-29T07:25:17.264Z,82.50
2023-04-29T07:28:08.511Z,82.68
2023-04-29T07:30:57.942Z,82.70
2023-04-29T07:33:47.670Z,82.91
2023-04-29T07:36:38.082Z,82.78
2023-04-29T07:39:29.313Z,82.62
2023-04-29T07:42:20.068Z,82.55
2023-04-29T07:45:10.847Z,82.20
2023-04-29T07:48:00.422Z,82.37
2023-04-29T07:50:50.158Z,82.42
2023-04-29T07:53:39.905Z,82.40
2023-04-29T07:56:30.633Z,82.47
2023-04-29T07:59:20.035Z,82.33
2023-04-29T08:02:09.557Z,82.36
2023-04-29T08:04:59.486Z,81.64
2023-04-29T08:07:49.527Z,82.00
2023-04-29T08:10:43.276Z,81.70
2023-04-29T08:13:34.122Z,81.24
2023-04-29T08:16:26.265Z,81.38
2023-04-29T08:19:15.883Z,80.83
2023-04-29T08:22:05.863Z,80.96
2023-04-29T08:24:55.238Z,80.78
2023-04-29T08:27:46.549Z,80.43
2023-04-29T08:30:41.008Z,80.42
2023-04-29T08:33:30.393Z,80.05
2023-04-29T08:36:19.892Z,79.48
2023-04-29T08:39:09.522Z,79.51
2023-04-29T08:41:59.474Z,79.33
2023-04-29T08:44:49.184Z,78.98
2023-04-29T08:47:40.965Z,78.54
2023-04-29T08:50:31.131Z,78.61
2023-04-29T08:53:20.558Z,78.42
2023-04-29T08:56:17.602Z,78.58
2023-04-29T08:59:09.189Z,78.48
2023-04-29T09:02:00.123Z,78.49
2023-04-29T09:04:59.268Z,78.38
2023-04-29T09:07:48.953Z,78.70
2023-04-29T09:10:38.602Z,78.68
2023-04-29T09:13:30.478Z,78.66
2023-04-29T09:16:19.721Z,79.11
2023-04-29T09:19:09.217Z,79.28
2023-04-29T09:22:00.713Z,80.42
2023-04-29T09:24:49.975Z,77.79
2023-04-29T09:27:39.322Z,77.62
2023-04-29T09:30:30.162Z,75.12
2023-04-29T09:33:19.595Z,72.85
2023-04-29T09:36:09.801Z,71.38
2023-04-29T09:39:00.921Z,69.70
2023-04-29T09:42:03.155Z,67.50
2023-04-29T09:44:53.225Z,68.30
2023-04-29T09:47:43.041Z,66.80
2023-04-29T09:50:32.606Z,65.96
2023-04-29T09:53:31.742Z,60.14
2023-04-29T09:56:22.890Z,59.04
2023-04-29T09:59:12.102Z,58.39
2023-04-29T10:02:01.680Z,58.16
2023-04-29T10:04:57.817Z,58.53
2023-04-29T10:07:49.262Z,59.28
2023-04-29T10:10:38.557Z,59.81
2023-04-29T10:13:30.066Z,60.65
2023-04-29T10:16:30.634Z,60.97
2023-04-29T10:19:35.346Z,60.95
2023-04-29T10:22:32.864Z,61.63
2023-04-29T10:25:24.703Z,61.49
2023-04-29T10:28:17.622Z,61.64
2023-04-29T10:31:08.926Z,61.61
2023-04-29T10:33:59.245Z,62.29
2023-04-29T10:36:50.170Z,62.59
2023-04-29T10:39:52.194Z,63.01
2023-04-29T10:42:47.137Z,62.88
2023-04-29T10:45:36.910Z,63.13
2023-04-29T10:48:28.296Z,63.56
2023-04-29T10:51:35.495Z,63.47
2023-04-29T10:54:26.140Z,63.10
2023-04-29T10:57:23.447Z,62.96
2023-04-29T11:00:24.502Z,63.55
2023-04-29T11:03:50.877Z,63.17
2023-04-29T11:06:44.295Z,63.25
2023-04-29T11:09:38.687Z,63.12
2023-04-29T11:12:28.160Z,63.62
2023-04-29T11:15:19.979Z,62.93
2023-04-29T11:18:13.109Z,59.88
2023-04-29T11:21:18.583Z,58.90
2023-04-29T11:24:08.578Z,59.40
2023-04-29T11:27:04.518Z,58.65
2023-04-29T11:29:58.685Z,58.22
2023-04-29T11:32:50.676Z,58.48
2023-04-29T11:35:41.652Z,57.73
2023-04-29T11:38:33.555Z,57.17
2023-04-29T11:41:23.301Z,57.13
2023-04-29T11:44:14.358Z,56.38
2023-04-29T11:47:04.579Z,54.57
2023-04-29T11:49:54.887Z,55.44
2023-04-29T11:52:44.761Z,56.05
2023-04-29T11:55:36.326Z,55.39
2023-04-29T11:58:26.317Z,55.53
2023-04-29T12:01:15.717Z,55.88
2023-04-29T12:04:07.478Z,56.33
2023-04-29T12:06:59.921Z,56.46
2023-04-29T12:09:49.233Z,57.46
2023-04-29T12:12:41.064Z,57.55
2023-04-29T12:15:30.881Z,57.50
2023-04-29T12:18:23.496Z,57.65
2023-04-29T12:21:12.842Z,56.79
2023-04-29T12:24:04.696Z,57.07
2023-04-29T12:26:55.058Z,57.05
2023-04-29T12:29:47.774Z,56.90
2023-04-29T12:32:37.892Z,57.42
2023-04-29T12:35:27.214Z,57.29
2023-04-29T12:38:21.998Z,57.04
2023-04-29T12:41:13.668Z,56.93
2023-04-29T12:44:04.270Z,55.19
2023-04-29T12:46:58.282Z,54.51
2023-04-29T12:49:50.385Z,51.27
2023-04-29T12:52:40.099Z,50.65
2023-04-29T12:55:29.860Z,50.50
2023-04-29T12:58:19.174Z,49.64
2023-04-29T13:01:08.450Z,48.25
2023-04-29T13:03:59.215Z,47.17
2023-04-29T13:06:48.621Z,46.43
2023-04-29T13:09:41.614Z,45.41
2023-04-29T13:12:30.986Z,43.90
2023-04-29T13:15:20.496Z,44.27
2023-04-29T13:18:09.714Z,45.01
2023-04-29T13:21:02.236Z,45.60
2023-04-29T13:23:52.179Z,45.82
2023-04-29T13:26:41.476Z,45.45
2023-04-29T13:29:31.334Z,46.09
2023-04-29T13:32:24.736Z,47.11
2023-04-29T13:35:14.128Z,47.31
2023-04-29T13:38:05.313Z,47.61
2023-04-29T13:40:55.167Z,48.57
2023-04-29T13:43:45.462Z,48.84
2023-04-29T13:46:34.976Z,48.96
2023-04-29T13:49:57.357Z,48.52
2023-04-29T13:56:15.441Z,49.25
2023-04-29T14:04:21.431Z,51.16
2023-04-29T14:07:10.939Z,51.70
2023-04-29T14:10:00.274Z,51.22
2023-04-29T14:12:50.975Z,50.54
2023-04-29T14:15:40.260Z,49.83
2023-04-29T14:18:30.664Z,49.64
2023-04-29T14:21:22.505Z,49.33
2023-04-29T14:24:11.907Z,48.50
2023-04-29T14:27:02.156Z,47.92
2023-04-29T14:29:52.836Z,47.88
2023-04-29T14:32:42.209Z,48.05
2023-04-29T14:35:31.874Z,47.48
2023-04-29T14:38:21.188Z,47.46
2023-04-29T14:41:10.552Z,47.95
2023-04-29T14:43:59.985Z,48.75
2023-04-29T14:46:50.677Z,49.80
2023-04-29T14:49:40.128Z,50.32
2023-04-29T14:52:29.406Z,50.97
2023-04-29T14:55:18.968Z,51.81
2023-04-29T14:58:10.034Z,52.15
2023-04-29T15:00:59.453Z,52.26
2023-04-29T15:03:50.158Z,52.40
2023-04-29T15:06:40.827Z,52.40
2023-04-29T15:09:30.711Z,52.77
2023-04-29T15:12:21.485Z,52.85
2023-04-29T15:15:12.038Z,53.50
2023-04-29T15:18:01.495Z,53.03
2023-04-29T15:20:52.176Z,52.10
2023-04-29T15:23:41.667Z,50.69
2023-04-29T15:26:30.979Z,49.21
2023-04-29T15:29:20.240Z,47.63
2023-04-29T15:32:10.669Z,47.50
2023-04-29T15:35:00.132Z,47.15
2023-04-29T15:37:50.948Z,47.07
2023-04-29T15:40:40.357Z,46.83
2023-04-29T15:43:29.807Z,46.69
2023-04-29T15:46:19.407Z,46.39
2023-04-29T15:49:08.597Z,46.93
2023-04-29T15:51:57.932Z,47.21
2023-04-29T15:54:48.709Z,47.44
2023-04-29T15:57:41.460Z,47.46
2023-04-29T16:00:30.758Z,47.71
2023-04-29T16:03:20.449Z,48.63
2023-04-29T16:06:10.025Z,48.63
2023-04-29T16:09:06.608Z,49.14
2023-04-29T16:11:58.467Z,49.50
2023-04-29T16:14:47.734Z,49.75
2023-04-29T16:17:37.148Z,50.10
2023-04-29T16:20:27.094Z,50.04
2023-04-29T16:23:16.294Z,50.19
2023-04-29T16:26:06.093Z,50.04
2023-04-29T16:28:56.779Z,50.68
2023-04-29T16:31:46.295Z,51.98
2023-04-29T16:34:35.706Z,53.11
2023-04-29T16:37:25.150Z,54.42
2023-04-29T16:40:15.400Z,55.49
2023-04-29T16:43:04.792Z,56.88
2023-04-29T16:45:55.443Z,59.73
2023-04-29T16:48:44.870Z,61.66
2023-04-29T16:51:34.656Z,62.56
2023-04-29T16:54:25.344Z,63.87
2023-04-29T16:57:14.898Z,64.84
2023-04-29T17:00:04.350Z,66.75
2023-04-29T17:02:58.456Z,68.38
2023-04-29T17:05:48.854Z,68.08
2023-04-29T17:08:38.313Z,69.03
2023-04-29T17:11:27.780Z,69.60
2023-04-29T17:14:17.445Z,70.60
2023-04-29T17:17:07.184Z,71.94
2023-04-29T17:19:58.347Z,73.87
2023-04-29T17:22:48.013Z,74.26
2023-04-29T17:25:39.152Z,76.17
2023-04-29T17:28:29.370Z,76.10
2023-04-29T17:31:20.876Z,77.14
2023-04-29T17:34:18.459Z,77.70
2023-04-29T17:37:09.568Z,78.01
2023-04-29T17:39:58.765Z,78.34
2023-04-29T17:42:47.947Z,78.57
2023-04-29T17:45:41.879Z,78.86
2023-04-29T17:48:32.464Z,79.28
2023-04-29T17:51:21.741Z,79.74
2023-04-29T17:54:12.437Z,80.36
2023-04-29T17:57:03.412Z,80.94
2023-04-29T17:59:52.973Z,81.15
2023-04-29T18:02:42.738Z,81.81
2023-04-29T18:05:32.190Z,81.94
2023-04-29T18:08:21.484Z,82.23
2023-04-29T18:11:12.718Z,82.67
2023-04-29T18:14:02.045Z,83.10
2023-04-29T18:16:51.691Z,83.22
2023-04-29T18:19:41.144Z,83.47
2023-04-29T18:22:30.464Z,83.98
2023-04-29T18:25:19.725Z,83.96
2023-04-29T18:28:24.200Z,84.56
2023-04-29T18:31:14.449Z,84.82
2023-04-29T18:34:03.629Z,85.13
2023-04-29T18:36:53.090Z,85.80
2023-04-29T18:39:42.761Z,86.43
2023-04-29T18:42:32.015Z,86.32
2023-04-29T18:45:22.871Z,86.91
2023-04-29T18:48:13.061Z,86.98
2023-04-29T18:51:04.431Z,87.58
2023-04-29T18:53:53.797Z,87.84
2023-04-29T18:56:44.737Z,87.72
2023-04-29T18:59:36.009Z,87.77
2023-04-29T19:02:26.801Z,87.69
2023-04-29T19:05:16.575Z,87.61
2023-04-29T19:08:06.397Z,87.34
2023-04-29T19:10:56.252Z,87.27
2023-04-29T19:13:46.716Z,87.14
2023-04-29T19:16:37.252Z,87.08
2023-04-29T19:19:28.164Z,87.05
2023-04-29T19:22:17.588Z,86.87
2023-04-29T19:25:07.982Z,86.79
2023-04-29T19:27:57.333Z,86.68
2023-04-29T19:30:46.890Z,86.45
2023-04-29T19:33:36.490Z,86.86
2023-04-29T19:36:27.456Z,87.11
2023-04-29T19:39:16.920Z,87.20
2023-04-29T19:42:06.363Z,87.38
2023-04-29T19:44:56.333Z,87.38
2023-04-29T19:47:46.275Z,87.51
2023-04-29T19:50:35.567Z,87.61
2023-04-29T19:53:32.574Z,87.79
2023-04-29T19:56:21.895Z,87.80
2023-04-29T19:59:12.243Z,87.90
2023-04-29T20:02:01.829Z,87.99
2023-04-29T20:04:51.441Z,88.08
2023-04-29T20:07:41.435Z,88.15
2023-04-29T20:10:32.389Z,87.79
2023-04-29T20:13:21.764Z,87.90
2023-04-29T20:16:11.502Z,88.02
2023-04-29T20:19:00.873Z,88.58
2023-04-29T20:21:50.858Z,88.35
2023-04-29T20:24:40.093Z,88.28
2023-04-29T20:27:30.817Z,88.19
2023-04-29T20:30:20.101Z,88.06
2023-04-29T20:33:09.622Z,88.44
2023-04-29T20:36:05.474Z,87.69
2023-04-29T20:38:54.644Z,87.29
2023-04-29T20:41:43.976Z,87.32
2023-04-29T20:44:35.108Z,86.18
2023-04-29T20:47:24.367Z,84.02
2023-04-29T20:50:13.697Z,83.18
2023-04-29T20:53:03.410Z,82.27
2023-04-29T20:55:52.626Z,82.75
2023-04-29T20:58:41.902Z,82.07
2023-04-29T21:01:32.534Z,81.78
2023-04-29T21:04:22.295Z,82.08
2023-04-29T21:07:11.586Z,81.08
2023-04-29T21:10:00.960Z,79.22
2023-04-29T21:12:50.208Z,80.02
2023-04-29T21:15:39.583Z,81.08
2023-04-29T21:18:30.230Z,78.86
2023-04-29T21:21:19.445Z,80.26
2023-04-29T21:24:08.667Z,80.08
2023-04-29T21:26:57.884Z,80.60
2023-04-29T21:29:47.175Z,80.58
2023-04-29T21:32:36.527Z,80.33
2023-04-29T21:35:28.215Z,79.51
2023-04-29T21:38:17.498Z,80.36
2023-04-29T21:41:09.989Z,80.85
2023-04-29T21:44:01.678Z,79.62
2023-04-29T21:46:51.042Z,79.86
2023-04-29T21:49:40.449Z,80.64
2023-04-29T21:52:35.145Z,81.06
2023-04-29T21:55:24.651Z,81.42
2023-04-29T21:58:14.180Z,81.48
2023-04-29T22:01:15.848Z,81.60
2023-04-29T22:04:05.158Z,81.91
2023-04-29T22:06:54.472Z,81.99
2023-04-29T22:09:49.458Z,82.02
2023-04-29T22:12:38.822Z,81.60
2023-04-29T22:15:29.426Z,81.85
2023-04-29T22:18:18.815Z,82.31
2023-04-29T22:21:08.865Z,82.33
2023-04-29T22:23:58.108Z,82.21
2023-04-29T22:26:48.740Z,82.16
2023-04-29T22:29:38.023Z,82.01
2023-04-29T22:32:27.390Z,81.75
2023-04-29T22:35:17.176Z,82.01
2023-04-29T22:38:06.490Z,82.34
2023-04-29T22:40:56.667Z,82.24
2023-04-29T22:43:47.294Z,82.11
2023-04-29T22:46:36.727Z,82.15
2023-04-29T22:49:26.281Z,82.46
2023-04-29T22:52:15.567Z,82.38
2023-04-29T22:55:05.304Z,82.17
2023-04-29T22:57:54.581Z,82.14
2023-04-29T23:00:46.968Z,82.34
2023-04-29T23:03:36.650Z,82.37
2023-04-29T23:06:26.414Z,82.89
2023-04-29T23:09:15.811Z,83.12
2023-04-29T23:12:05.932Z,83.24
2023-04-29T23:14:55.657Z,83.32
2023-04-29T23:17:46.367Z,83.36
2023-04-29T23:20:35.694Z,83.30
2023-04-29T23:23:25.083Z,83.31
2023-04-29T23:26:14.723Z,83.57
2023-04-29T23:29:04.147Z,83.63
2023-04-29T23:31:53.435Z,83.55
2023-04-29T23:34:44.219Z,83.67
2023-04-29T23:37:33.533Z,83.63
2023-04-29T23:40:22.844Z,83.36
2023-04-29T23:43:12.260Z,83.72
2023-04-29T23:46:01.476Z,83.70
2023-04-29T23:48:50.956Z,83.66
2023-04-29T23:51:41.754Z,83.70
2023-04-29T23:54:30.965Z,83.29
2023-04-29T23:57:20.180Z,83.55
